2021-06-19 - 18:31:00

SR: 0308 - SS: 1954

RWY: 25


OBSERVATION: n/a

RVR Mean 1 min: (Runway Visual Range)
A: P2000 - B: P2000 - C: P2000
RVR Mean 10 min:
A: P2000 - B: P2000 - C: P2000
WARNING: n/a
W25: 330-020(360-09kt) 04kt-13kt
W07: 350-040(020-07kt) 04kt-12kt
OTHER: n/a

QFE: (tatsächlicher Luftdruck) 1005.9 hPa = 29.67 inHg
QNH:(Luftdruck auf Meereshöhe) 1011.7 hPa = 29.85 inHg
Temperatur: 26.9 °C
Dew point(Taupunkt): 17.5 °C

METAR:  00627 SADL31 EDDG 191820 METAR EDDG 191820Z 36006KT CAVOK 28/16 Q1011 NOSIG= 
METAR (aus weather.noaa.gov):
2021/06/19 18:20 EDDG 191820Z 36006KT CAVOK 28/16 Q1011 NOSIG

TAF (aus weather.noaa.gov):
2021/06/19 18:30 TAF TAF EDDG 191700Z 1918/2018 35006KT CAVOK BECMG 1920/1923 07006KT TEMPO 2001/2006 18020G35KT TSRA BKN040CB PROB30 TEMPO 2001/2004 20030G45KT 3000 +TSRAGR BECMG 2003/2006 18007KT BECMG 2006/2008 23012KT BECMG 2013/2016 32006KT
NOWCAST
614
FODL44 EDDG 191800
FODL44 EDDG 2106191805
# Nowcasting EDDG 19.06.2021 18:05 UTC
Parameter/Stunde19202122230001
Windrichtung360010020030040060070
Windgeschwindigkeit5544454
Böen--------------
Lufttemperatur26242322222121
Taupunkt16161616161616
Belagstemperatur26232221202020
Wetter-vorherrschend-----------RASHRA
QNH1011101110111011101010091008
Wind in 5000 ft190/15180/15160/20160/20160/20160/25170/30
Wind in 3000 ft120/05110/10120/15120/20130/25160/25170/25
Wind in 2000 ft040/10070/10080/20090/20100/25130/30150/20
Wind in 1000 ft030/10050/15070/20070/20090/25110/25130/20